Time;durP1;ratioP1;P1;durP2;ratioP2;P2;SDS_P1;SDS_P2;PMS_P1;PMS_P2;Temp;Humidity;BMP_temperature;BMP_pressure;BME280_temperature;BME280_humidity;BME280_pressure;Samples;Min_cycle;Max_cycle;Signal;HPM_P1;HPM_P2
2022/11/17 00:01:22;;;;;;;353.23;30.33;;;6.10;99.90;;;;;;5071076;28;20028;-49
2022/11/17 00:03:49;;;;;;;171.13;23.02;;;6.20;99.90;;;;;;5071059;28;20028;-49
2022/11/17 00:06:16;;;;;;;134.10;22.42;;;6.20;99.90;;;;;;5070968;28;20420;-50
2022/11/17 00:08:42;;;;;;;234.52;24.20;;;6.20;99.90;;;;;;5070961;28;20017;-50
2022/11/17 00:11:08;;;;;;;140.82;21.13;;;6.10;99.90;;;;;;5086479;28;20388;-54
2022/11/17 00:16:19;;;;;;;191.82;24.25;;;6.20;99.90;;;;;;5074623;28;20077;-50
2022/11/17 00:21:30;;;;;;;182.98;21.00;;;6.10;99.90;;;;;;5074953;28;20086;-49
2022/11/17 00:23:56;;;;;;;170.57;22.42;;;6.20;99.90;;;;;;5074621;28;20451;-51
2022/11/17 00:26:25;;;;;;;219.55;25.48;;;6.10;99.90;;;;;;5074761;28;20025;-50
2022/11/17 00:28:53;;;;;;;193.52;25.40;;;6.10;99.90;;;;;;5090187;28;20020;-50
2022/11/17 00:34:04;;;;;;;213.10;24.83;;;6.10;99.90;;;;;;5074828;28;20051;-49
2022/11/17 00:36:40;;;;;;;41.13;20.77;;;6.10;99.90;;;;;;5074404;28;20028;-53
2022/11/17 00:39:07;;;;;;;254.15;32.00;;;6.10;99.90;;;;;;5073091;28;20058;-50
2022/11/17 00:41:33;;;;;;;222.82;28.92;;;6.10;99.90;;;;;;5074195;28;20021;-51
2022/11/17 00:43:58;;;;;;;349.00;36.72;;;6.20;99.90;;;;;;5074220;28;20527;-50
2022/11/17 00:46:24;;;;;;;228.38;25.35;;;6.10;99.90;;;;;;5074249;28;20039;-50
2022/11/17 00:48:50;;;;;;;236.25;30.35;;;6.20;99.90;;;;;;5074124;28;20032;-49
2022/11/17 00:51:16;;;;;;;186.07;23.98;;;6.20;99.90;;;;;;5074186;28;20028;-50
2022/11/17 00:53:41;;;;;;;310.50;35.67;;;6.20;99.90;;;;;;5089591;28;20021;-51
2022/11/17 00:56:07;;;;;;;164.63;23.90;;;6.20;99.90;;;;;;5074093;28;20034;-51
2022/11/17 00:58:34;;;;;;;234.38;27.33;;;6.20;99.90;;;;;;5073797;28;20040;-49
2022/11/17 01:01:00;;;;;;;295.67;27.33;;;6.10;99.90;;;;;;5073905;28;20048;-51
2022/11/17 01:03:25;;;;;;;91.10;20.20;;;6.10;99.90;;;;;;5074100;28;20060;-50
2022/11/17 01:05:51;;;;;;;260.23;29.38;;;6.20;99.90;;;;;;5073782;28;20040;-50
2022/11/17 01:08:16;;;;;;;52.35;18.27;;;6.10;99.90;;;;;;5073929;28;20032;-53
2022/11/17 01:10:42;;;;;;;46.78;16.30;;;6.20;99.90;;;;;;5073657;28;20032;-52
2022/11/17 01:13:08;;;;;;;135.13;19.30;;;6.20;99.90;;;;;;5073693;28;20522;-54
2022/11/17 01:15:33;;;;;;;118.75;21.10;;;6.20;99.90;;;;;;5073625;28;20392;-50
2022/11/17 01:17:59;;;;;;;223.43;25.52;;;6.20;99.90;;;;;;5073518;28;20476;-52
2022/11/17 01:20:25;;;;;;;151.35;21.02;;;6.10;99.90;;;;;;5089305;28;20033;-50
2022/11/17 01:22:53;;;;;;;50.15;18.20;;;6.20;99.90;;;;;;5073472;28;20060;-49
2022/11/17 01:25:19;;;;;;;256.15;26.35;;;6.20;99.90;;;;;;5073535;28;20086;-51
2022/11/17 01:27:44;;;;;;;203.15;23.10;;;6.20;99.90;;;;;;5072762;28;20467;-53
2022/11/17 01:30:11;;;;;;;108.45;19.60;;;6.20;99.90;;;;;;5073510;28;20071;-52
2022/11/17 01:32:37;;;;;;;249.10;34.35;;;6.20;99.90;;;;;;5072074;28;20032;-54
2022/11/17 01:35:02;;;;;;;65.85;19.00;;;6.20;99.90;;;;;;5073463;28;20361;-50
2022/11/17 01:37:28;;;;;;;284.52;29.52;;;6.20;99.90;;;;;;5073462;28;20063;-50
2022/11/17 01:39:54;;;;;;;149.82;23.05;;;6.10;99.90;;;;;;5073253;28;20028;-49
2022/11/17 01:42:23;;;;;;;129.80;22.05;;;6.20;99.90;;;;;;5073252;28;20032;-49
2022/11/17 01:45:16;;;;;;;176.18;23.50;;;6.20;99.90;;;;;;5072938;28;20025;-52
2022/11/17 01:47:48;;;;;;;196.90;20.13;;;6.20;99.90;;;;;;5073132;28;20522;-50
2022/11/17 01:50:19;;;;;;;203.40;20.50;;;6.10;99.90;;;;;;5073143;28;20123;-50
2022/11/17 01:52:49;;;;;;;111.95;16.38;;;6.10;99.90;;;;;;5072757;28;20025;-49
2022/11/17 01:55:16;;;;;;;251.65;20.52;;;6.10;99.90;;;;;;5072602;28;20070;-50
2022/11/17 01:57:48;;;;;;;306.85;23.02;;;6.10;99.90;;;;;;5072374;28;20051;-50
2022/11/17 02:00:15;;;;;;;126.50;16.95;;;6.10;99.90;;;;;;5072850;28;20032;-50
2022/11/17 02:02:42;;;;;;;157.07;17.13;;;6.10;99.90;;;;;;5072719;28;20056;-51
2022/11/17 02:05:13;;;;;;;160.70;19.13;;;6.10;99.90;;;;;;5072733;28;20028;-51
2022/11/17 02:07:41;;;;;;;180.43;18.42;;;6.10;99.90;;;;;;5072665;28;20024;-50
2022/11/17 02:10:07;;;;;;;106.57;16.77;;;6.10;99.90;;;;;;5072807;28;20025;-50
2022/11/17 02:12:35;;;;;;;150.18;18.00;;;6.20;99.90;;;;;;5072489;28;20067;-51
2022/11/17 02:15:01;;;;;;;265.15;22.50;;;6.20;99.90;;;;;;5071315;28;20755;-51
2022/11/17 02:17:39;;;;;;;242.00;20.65;;;6.20;99.90;;;;;;5072534;28;20445;-49
2022/11/17 02:20:15;;;;;;;96.07;18.20;;;6.20;99.90;;;;;;5072164;28;20099;-50
2022/11/17 02:22:59;;;;;;;241.40;22.35;;;6.20;99.90;;;;;;5072483;28;20365;-49
2022/11/17 02:26:00;;;;;;;129.10;17.33;;;6.20;99.90;;;;;;5072288;28;20020;-50
2022/11/17 02:28:36;;;;;;;322.65;21.77;;;6.20;99.90;;;;;;5070904;28;20036;-50
2022/11/17 02:31:22;;;;;;;459.67;25.42;;;6.20;99.90;;;;;;5072406;28;20158;-50
2022/11/17 02:34:18;;;;;;;268.95;18.65;;;6.20;99.90;;;;;;5072178;28;20119;-51
2022/11/17 02:37:06;;;;;;;218.18;16.55;;;6.10;99.90;;;;;;5072060;28;20024;-49
2022/11/17 02:39:54;;;;;;;222.52;16.58;;;6.10;99.90;;;;;;5071162;28;20021;-51
2022/11/17 02:44:02;;;;;;;219.50;17.75;;;6.00;99.90;;;;;;5072167;28;20028;-50
2022/11/17 02:45:16;;;;;;;414.42;21.50;;;6.00;99.90;;;;;;5071803;28;20086;-51
2022/11/17 02:47:45;;;;;;;373.83;21.33;;;6.00;99.90;;;;;;5071923;28;20030;-50
2022/11/17 02:50:12;;;;;;;69.28;12.55;;;6.00;99.90;;;;;;5071996;28;20033;-49
2022/11/17 02:52:37;;;;;;;147.07;15.73;;;6.00;99.90;;;;;;5071945;28;20490;-50
2022/11/17 02:55:07;;;;;;;131.23;15.65;;;6.00;99.90;;;;;;5071896;28;20050;-50
2022/11/17 02:57:35;;;;;;;102.15;14.85;;;6.00;99.90;;;;;;5070332;28;20025;-50
2022/11/17 03:00:06;;;;;;;44.08;14.38;;;6.00;99.90;;;;;;5072062;28;20033;-51
2022/11/17 03:02:36;;;;;;;41.30;14.65;;;6.00;99.90;;;;;;5071744;28;20027;-50
2022/11/17 03:05:21;;;;;;;31.88;11.63;;;6.00;99.90;;;;;;5071812;28;20341;-49
2022/11/17 03:08:01;;;;;;;13.43;10.80;;;6.00;99.90;;;;;;5071595;28;20027;-49
2022/11/17 03:10:50;;;;;;;20.15;11.57;;;5.90;99.90;;;;;;5071752;28;20471;-51
2022/11/17 03:13:35;;;;;;;15.90;10.02;;;5.90;99.90;;;;;;5071648;28;20031;-50
2022/11/17 03:16:03;;;;;;;19.92;10.32;;;5.90;99.90;;;;;;5071712;28;20122;-51
2022/11/17 03:19:06;;;;;;;23.27;10.95;;;5.90;99.90;;;;;;5071431;28;20071;-53
2022/11/17 03:21:52;;;;;;;15.82;11.13;;;5.90;99.90;;;;;;5071508;28;20028;-51
2022/11/17 03:24:21;;;;;;;14.13;11.18;;;5.90;99.90;;;;;;5071422;28;20092;-49
2022/11/17 03:27:12;;;;;;;14.90;10.38;;;5.90;99.90;;;;;;5071263;28;20431;-52
2022/11/17 03:29:49;;;;;;;14.50;9.95;;;5.90;99.90;;;;;;5069651;28;20036;-50
2022/11/17 03:32:16;;;;;;;16.05;9.35;;;5.80;99.90;;;;;;5071547;28;20067;-51
2022/11/17 03:34:49;;;;;;;13.15;9.43;;;5.80;99.90;;;;;;5071473;28;20028;-49
2022/11/17 03:37:17;;;;;;;9.90;8.40;;;5.80;99.90;;;;;;5071391;28;20033;-50
2022/11/17 03:39:47;;;;;;;11.35;8.95;;;5.90;99.90;;;;;;5071319;28;20263;-51
2022/11/17 03:42:27;;;;;;;17.15;8.88;;;5.90;99.90;;;;;;5071485;28;20013;-49
2022/11/17 03:45:05;;;;;;;8.98;7.72;;;5.80;99.90;;;;;;5086909;28;20432;-50
2022/11/17 03:47:32;;;;;;;13.40;9.20;;;5.80;99.90;;;;;;5071394;28;20020;-49
2022/11/17 03:49:58;;;;;;;10.32;8.18;;;5.80;99.90;;;;;;5073009;28;20017;-48
2022/11/17 03:52:24;;;;;;;14.40;9.38;;;5.80;99.90;;;;;;5075247;28;20033;-47
2022/11/17 03:54:51;;;;;;;27.25;10.35;;;5.80;99.90;;;;;;5075299;28;20356;-51
2022/11/17 03:57:41;;;;;;;19.23;9.93;;;5.70;99.90;;;;;;5075302;28;20048;-49
2022/11/17 04:00:13;;;;;;;40.70;9.63;;;5.80;99.90;;;;;;5075250;28;20036;-51
2022/11/17 04:02:43;;;;;;;27.98;10.50;;;5.70;99.90;;;;;;5075015;28;20125;-50
2022/11/17 04:05:10;;;;;;;15.23;11.48;;;5.70;99.90;;;;;;5075145;28;20115;-51
2022/11/17 04:07:46;;;;;;;15.82;10.50;;;5.80;99.90;;;;;;5074816;28;20024;-50
2022/11/17 04:10:16;;;;;;;23.13;11.15;;;5.80;99.90;;;;;;5075077;28;20029;-51
2022/11/17 04:18:12;;;;;;;33.35;12.65;;;5.80;99.90;;;;;;5074851;28;20027;-52
2022/11/17 04:20:38;;;;;;;16.27;11.43;;;5.80;99.90;;;;;;5074752;28;20020;-49
2022/11/17 04:23:06;;;;;;;30.13;12.48;;;5.90;99.90;;;;;;5074612;28;20337;-51
2022/11/17 04:28:37;;;;;;;31.25;12.43;;;5.90;99.90;;;;;;5074981;28;20035;-50
2022/11/17 04:31:26;;;;;;;52.13;13.18;;;6.00;99.90;;;;;;5074693;28;20029;-49
2022/11/17 04:33:54;;;;;;;75.78;13.98;;;6.10;99.90;;;;;;5074660;28;20028;-50
2022/11/17 04:36:22;;;;;;;48.42;14.50;;;5.90;99.90;;;;;;5074478;28;20117;-51
2022/11/17 04:38:50;;;;;;;61.63;16.67;;;5.90;99.90;;;;;;5074474;28;20364;-53
2022/11/17 04:44:02;;;;;;;105.03;15.43;;;6.00;99.90;;;;;;5089925;28;20046;-49
2022/11/17 04:46:30;;;;;;;101.65;18.30;;;6.00;99.90;;;;;;5094551;28;20528;-50
2022/11/17 04:48:57;;;;;;;135.95;17.35;;;6.00;99.90;;;;;;5094624;28;20047;-50
2022/11/17 04:51:24;;;;;;;213.15;19.60;;;6.00;99.90;;;;;;5094467;28;20039;-51
2022/11/17 04:53:50;;;;;;;33.60;13.88;;;6.00;99.90;;;;;;5094371;28;20032;-49
2022/11/17 04:56:18;;;;;;;167.73;17.65;;;6.00;99.90;;;;;;5094327;28;20019;-51
2022/11/17 04:58:43;;;;;;;127.63;17.35;;;6.00;99.90;;;;;;5094303;28;20024;-50
2022/11/17 05:01:12;;;;;;;144.63;17.33;;;6.00;99.90;;;;;;5093355;28;20031;-50
2022/11/17 05:03:40;;;;;;;129.60;16.70;;;6.00;99.90;;;;;;5094070;28;20028;-49
2022/11/17 05:06:05;;;;;;;42.67;13.70;;;6.00;99.90;;;;;;5094193;28;20028;-51
2022/11/17 05:08:33;;;;;;;23.00;12.85;;;5.90;99.90;;;;;;5094076;28;20023;-49
2022/11/17 05:13:43;;;;;;;33.92;14.52;;;5.90;99.90;;;;;;5093984;28;20027;-53
2022/11/17 05:18:52;;;;;;;19.85;14.15;;;5.90;99.90;;;;;;5093802;28;20059;-52
2022/11/17 05:21:18;;;;;;;20.95;13.45;;;5.90;99.90;;;;;;5094013;28;20032;-51
2022/11/17 05:23:52;;;;;;;15.73;12.20;;;6.00;99.90;;;;;;5092545;28;20466;-50
2022/11/17 05:26:20;;;;;;;21.08;13.23;;;6.00;99.90;;;;;;5093835;28;20039;-49
2022/11/17 05:28:45;;;;;;;22.10;13.90;;;5.90;99.90;;;;;;5092345;28;20681;-49
2022/11/17 05:31:11;;;;;;;35.90;15.32;;;5.90;99.90;;;;;;5093749;28;20077;-49
2022/11/17 05:33:37;;;;;;;38.85;15.30;;;5.90;99.90;;;;;;5093629;28;20024;-51
2022/11/17 05:36:03;;;;;;;26.67;15.65;;;5.90;99.90;;;;;;5093574;28;20480;-50
2022/11/17 05:38:29;;;;;;;21.60;13.90;;;5.90;99.90;;;;;;5093661;28;20117;-52
2022/11/17 05:40:55;;;;;;;16.83;12.07;;;5.90;99.90;;;;;;5093555;28;20045;-49
2022/11/17 05:43:21;;;;;;;16.70;12.10;;;5.90;99.90;;;;;;5093527;28;20438;-50
2022/11/17 05:45:47;;;;;;;15.27;10.65;;;5.90;99.90;;;;;;5093230;28;20021;-50
2022/11/17 05:48:13;;;;;;;15.70;11.68;;;5.90;99.90;;;;;;5093274;28;20078;-50
2022/11/17 05:50:38;;;;;;;16.02;11.10;;;5.90;99.90;;;;;;5091560;28;20069;-51
2022/11/17 05:53:04;;;;;;;18.83;12.48;;;5.90;99.90;;;;;;5093029;28;20027;-51
2022/11/17 05:55:30;;;;;;;21.95;12.70;;;6.00;99.90;;;;;;5093223;28;20111;-52
2022/11/17 05:58:00;;;;;;;23.63;15.05;;;5.90;99.90;;;;;;5093357;28;20097;-53
2022/11/17 06:00:26;;;;;;;22.63;13.52;;;6.00;99.90;;;;;;5093205;28;20100;-51
2022/11/17 06:02:59;;;;;;;29.90;15.40;;;6.00;99.90;;;;;;5092927;28;20075;-49
2022/11/17 06:05:25;;;;;;;50.47;15.88;;;6.00;99.90;;;;;;5092974;28;20039;-52
2022/11/17 06:07:56;;;;;;;72.10;16.55;;;6.00;99.90;;;;;;5092794;28;21534;-61
2022/11/17 06:10:22;;;;;;;52.72;14.82;;;6.00;99.90;;;;;;5081711;28;20107;-48
2022/11/17 06:12:48;;;;;;;39.00;14.90;;;6.10;99.90;;;;;;5071899;28;20099;-49
2022/11/17 06:15:14;;;;;;;49.15;16.48;;;6.10;99.90;;;;;;5072219;28;20044;-49
2022/11/17 06:17:47;;;;;;;69.65;16.00;;;6.10;99.90;;;;;;5070848;28;20060;-51
2022/11/17 06:20:24;;;;;;;77.45;15.93;;;6.00;99.90;;;;;;5072348;28;20647;-49
2022/11/17 06:22:50;;;;;;;80.53;17.35;;;6.00;99.90;;;;;;5072317;28;20036;-49
2022/11/17 06:25:18;;;;;;;117.93;17.48;;;5.90;99.90;;;;;;5071844;28;20028;-50
2022/11/17 06:27:46;;;;;;;55.60;15.88;;;5.90;99.90;;;;;;5072126;28;20125;-51
2022/11/17 06:30:11;;;;;;;57.63;15.40;;;5.90;99.90;;;;;;5072105;28;20020;-49
2022/11/17 06:32:39;;;;;;;70.30;16.17;;;5.90;99.90;;;;;;5072028;28;20028;-51
2022/11/17 06:35:07;;;;;;;21.75;14.68;;;5.90;99.90;;;;;;5072127;28;20021;-50
2022/11/17 06:37:33;;;;;;;78.13;17.45;;;5.90;99.90;;;;;;5071689;28;20052;-49
2022/11/17 06:39:59;;;;;;;67.07;19.80;;;6.00;99.90;;;;;;5071877;28;20067;-51
2022/11/17 06:45:09;;;;;;;134.43;20.20;;;6.00;99.90;;;;;;5071850;28;20054;-50
2022/11/17 06:47:47;;;;;;;68.65;17.48;;;6.00;99.90;;;;;;5071778;28;20016;-51
2022/11/17 06:50:13;;;;;;;79.72;15.90;;;6.10;99.90;;;;;;5071497;28;20048;-54
2022/11/17 06:52:38;;;;;;;84.40;16.40;;;6.00;99.90;;;;;;5071662;28;20029;-53
2022/11/17 06:55:05;;;;;;;79.75;14.85;;;6.00;99.90;;;;;;5091021;28;20107;-50
2022/11/17 06:57:30;;;;;;;112.82;17.45;;;6.10;99.90;;;;;;5092031;28;20119;-53
2022/11/17 06:59:56;;;;;;;125.18;16.60;;;6.10;99.90;;;;;;5092020;28;20095;-51
2022/11/17 07:02:21;;;;;;;122.78;16.90;;;6.00;99.90;;;;;;5089087;28;20052;-50
2022/11/17 07:04:47;;;;;;;122.82;16.65;;;6.00;99.90;;;;;;5072273;28;20021;-51
2022/11/17 07:07:13;;;;;;;134.25;17.45;;;6.10;99.90;;;;;;5069095;28;20033;-50
2022/11/17 07:09:39;;;;;;;195.15;18.13;;;6.10;99.90;;;;;;5070079;28;20031;-51
2022/11/17 07:12:05;;;;;;;106.80;15.95;;;6.10;99.90;;;;;;5070032;28;20021;-49
2022/11/17 07:14:30;;;;;;;28.33;13.18;;;6.10;99.90;;;;;;5070110;28;20025;-50
2022/11/17 07:16:57;;;;;;;126.05;16.25;;;6.20;99.90;;;;;;5070148;28;20480;-49
2022/11/17 07:19:22;;;;;;;24.10;13.75;;;6.20;99.90;;;;;;5070077;28;20110;-49
2022/11/17 07:21:48;;;;;;;42.70;13.57;;;6.20;99.90;;;;;;5070027;28;20024;-49
2022/11/17 07:24:14;;;;;;;47.25;15.35;;;6.30;99.90;;;;;;5069306;28;20056;-49
2022/11/17 07:26:39;;;;;;;57.85;16.13;;;6.20;99.90;;;;;;5068830;28;20054;-50
2022/11/17 07:29:05;;;;;;;55.53;15.38;;;6.30;99.90;;;;;;5068910;28;20055;-51
2022/11/17 07:31:33;;;;;;;53.42;15.43;;;6.30;99.90;;;;;;5070175;28;20024;-49
2022/11/17 07:33:58;;;;;;;32.90;14.40;;;6.30;99.90;;;;;;5070147;28;20028;-50
2022/11/17 07:36:24;;;;;;;31.50;14.27;;;6.40;99.90;;;;;;5069932;28;20032;-53
2022/11/17 07:38:49;;;;;;;25.80;14.98;;;6.40;99.90;;;;;;5069682;28;20381;-50
2022/11/17 07:41:15;;;;;;;19.55;13.07;;;6.40;99.90;;;;;;5070027;28;20020;-51
2022/11/17 07:43:41;;;;;;;20.50;13.15;;;6.50;99.90;;;;;;5069639;28;20025;-49
2022/11/17 07:46:10;;;;;;;22.83;12.93;;;6.40;99.90;;;;;;5069667;28;20459;-49
2022/11/17 07:48:36;;;;;;;18.67;12.95;;;6.50;99.90;;;;;;5069840;28;20408;-50
2022/11/17 07:51:03;;;;;;;19.70;12.52;;;6.50;99.90;;;;;;5069818;28;20059;-49
2022/11/17 07:53:30;;;;;;;19.90;12.65;;;6.50;99.90;;;;;;5068432;28;20020;-49
2022/11/17 07:56:00;;;;;;;15.95;11.50;;;6.50;99.90;;;;;;5069741;28;20506;-51
2022/11/17 07:58:28;;;;;;;20.88;11.70;;;6.40;99.90;;;;;;5069842;28;20027;-49
2022/11/17 08:00:54;;;;;;;20.08;13.80;;;6.50;99.90;;;;;;5069622;28;20404;-51
2022/11/17 08:03:20;;;;;;;17.38;12.27;;;6.60;99.90;;;;;;5069681;28;20074;-50
2022/11/17 08:05:45;;;;;;;17.98;11.93;;;6.60;99.90;;;;;;5069664;28;20443;-49
2022/11/17 08:08:12;;;;;;;18.42;12.70;;;6.50;99.90;;;;;;5069735;28;20028;-50
2022/11/17 08:10:38;;;;;;;20.33;12.52;;;6.60;99.90;;;;;;5070157;28;20016;-51
2022/11/17 08:13:05;;;;;;;25.35;12.13;;;6.60;99.90;;;;;;5067947;28;20078;-50
2022/11/17 08:15:30;;;;;;;15.48;11.23;;;6.60;99.90;;;;;;5069668;28;20024;-51
2022/11/17 08:18:02;;;;;;;16.95;12.40;;;6.70;99.90;;;;;;5068351;28;20032;-50
2022/11/17 08:20:28;;;;;;;22.52;12.20;;;6.70;99.90;;;;;;5069544;28;20055;-50
2022/11/17 08:22:55;;;;;;;16.38;12.93;;;6.70;99.90;;;;;;5069757;28;20475;-52
2022/11/17 08:25:23;;;;;;;17.35;12.35;;;6.80;99.90;;;;;;5069023;28;20035;-50
2022/11/17 08:27:50;;;;;;;17.27;12.43;;;6.80;99.90;;;;;;5069822;28;20024;-51
2022/11/17 08:30:18;;;;;;;14.43;10.43;;;6.80;99.90;;;;;;5069576;28;20024;-50
2022/11/17 08:32:48;;;;;;;15.63;11.10;;;7.00;99.90;;;;;;5069375;28;20425;-50
2022/11/17 08:35:15;;;;;;;12.25;9.48;;;7.10;99.90;;;;;;5069751;28;20029;-51
2022/11/17 08:37:41;;;;;;;12.05;9.23;;;7.10;99.90;;;;;;5073015;28;20023;-51
2022/11/17 08:40:07;;;;;;;17.17;10.98;;;7.10;99.90;;;;;;5071609;28;20107;-49
2022/11/17 08:42:33;;;;;;;17.58;12.35;;;7.10;99.90;;;;;;5072842;28;20088;-50
2022/11/17 08:44:59;;;;;;;14.15;11.32;;;7.20;99.90;;;;;;5071647;28;20028;-53
2022/11/17 08:47:25;;;;;;;14.63;11.38;;;7.20;99.90;;;;;;5072946;28;20499;-53
2022/11/17 08:49:50;;;;;;;20.42;15.50;;;7.20;99.90;;;;;;5071479;28;20031;-49
2022/11/17 08:52:18;;;;;;;14.05;10.63;;;7.10;99.90;;;;;;5072863;28;20380;-49
2022/11/17 08:54:44;;;;;;;22.63;16.67;;;7.10;99.90;;;;;;5072595;28;20029;-49
2022/11/17 08:57:10;;;;;;;17.10;12.50;;;7.10;99.90;;;;;;5072872;28;20431;-51
2022/11/17 08:59:35;;;;;;;17.90;12.73;;;7.10;99.90;;;;;;5072624;28;20056;-49
2022/11/17 09:02:01;;;;;;;13.80;10.65;;;7.20;99.90;;;;;;5072365;28;20020;-50
2022/11/17 09:04:27;;;;;;;14.60;10.43;;;7.10;99.90;;;;;;5087657;28;20031;-50
2022/11/17 09:06:52;;;;;;;10.02;8.88;;;7.10;99.90;;;;;;5092770;28;20081;-49
2022/11/17 09:09:19;;;;;;;11.88;9.45;;;7.20;99.90;;;;;;5092814;28;20370;-49
2022/11/17 09:11:45;;;;;;;19.85;13.85;;;7.40;99.90;;;;;;5092532;28;20534;-50
2022/11/17 09:14:10;;;;;;;13.55;9.05;;;7.40;99.90;;;;;;5093005;28;20023;-50
2022/11/17 09:16:36;;;;;;;11.68;10.05;;;7.50;99.90;;;;;;5091457;28;20024;-50
2022/11/17 09:19:02;;;;;;;11.10;8.98;;;7.60;99.90;;;;;;5092332;28;20050;-50
2022/11/17 09:21:30;;;;;;;11.15;9.05;;;7.70;99.90;;;;;;5091070;28;20020;-52
2022/11/17 09:23:56;;;;;;;13.80;12.27;;;7.70;99.90;;;;;;5092366;28;20027;-51
2022/11/17 09:26:21;;;;;;;10.15;8.77;;;7.70;99.90;;;;;;5090726;28;20024;-54
2022/11/17 09:28:47;;;;;;;10.63;8.55;;;7.90;99.90;;;;;;5092247;28;20031;-51
2022/11/17 09:31:19;;;;;;;10.85;7.35;;;8.10;99.90;;;;;;5092306;28;20020;-52
2022/11/17 09:33:45;;;;;;;8.88;7.28;;;8.40;99.90;;;;;;5091974;28;20565;-51
2022/11/17 09:36:12;;;;;;;10.57;7.70;;;8.30;99.90;;;;;;5092056;28;20020;-51
2022/11/17 09:38:38;;;;;;;9.15;7.38;;;8.10;99.90;;;;;;5092090;28;20016;-50
2022/11/17 09:41:16;;;;;;;14.18;11.50;;;8.10;99.90;;;;;;5092295;28;20034;-50
2022/11/17 09:43:50;;;;;;;12.05;10.20;;;8.10;99.90;;;;;;5091864;28;20028;-51
2022/11/17 09:46:26;;;;;;;10.20;8.15;;;8.30;99.90;;;;;;5091905;28;20024;-49
2022/11/17 09:49:09;;;;;;;13.38;8.70;;;8.40;99.90;;;;;;5091261;28;20516;-49
2022/11/17 09:51:51;;;;;;;10.55;8.73;;;8.40;99.90;;;;;;5091873;28;20024;-49
2022/11/17 09:54:27;;;;;;;13.48;8.32;;;8.40;99.90;;;;;;5091883;28;20107;-52
2022/11/17 09:56:55;;;;;;;13.93;9.32;;;8.30;99.90;;;;;;5091894;28;20431;-51
2022/11/17 09:59:26;;;;;;;10.43;8.52;;;8.30;99.90;;;;;;5091609;28;20024;-51
2022/11/17 10:01:52;;;;;;;13.48;9.60;;;8.20;99.90;;;;;;5091666;28;20482;-50
2022/11/17 10:04:18;;;;;;;13.13;9.30;;;8.30;99.90;;;;;;5078058;28;20087;-50
2022/11/17 10:07:09;;;;;;;18.33;13.10;;;8.10;99.90;;;;;;5069906;28;20163;-51
2022/11/17 10:09:42;;;;;;;16.15;12.20;;;8.00;99.90;;;;;;5069799;28;20021;-51
2022/11/17 10:12:20;;;;;;;10.07;8.52;;;8.00;99.90;;;;;;5071251;28;20228;-49
2022/11/17 10:14:50;;;;;;;12.77;11.07;;;8.00;99.90;;;;;;5070991;28;20028;-50
2022/11/17 10:17:16;;;;;;;15.68;9.90;;;8.00;99.90;;;;;;5071204;28;20111;-50
2022/11/17 10:19:44;;;;;;;13.40;9.75;;;8.10;99.90;;;;;;5070774;28;20123;-50
2022/11/17 10:22:09;;;;;;;15.68;11.82;;;8.20;99.90;;;;;;5069760;28;20028;-49
2022/11/17 10:24:39;;;;;;;17.23;12.40;;;8.20;99.90;;;;;;5071010;28;20375;-51
2022/11/17 10:27:23;;;;;;;19.23;12.07;;;8.20;99.90;;;;;;5070920;28;20071;-50
2022/11/17 10:30:30;;;;;;;11.10;8.05;;;8.40;99.90;;;;;;5070839;28;20103;-51
2022/11/17 10:32:58;;;;;;;10.45;8.90;;;8.80;99.90;;;;;;5070709;28;20021;-49
2022/11/17 10:35:30;;;;;;;10.15;8.70;;;8.90;99.90;;;;;;5070778;28;20028;-51
2022/11/17 10:38:06;;;;;;;17.88;12.55;;;9.30;99.90;;;;;;5071150;28;20024;-54
2022/11/17 10:40:52;;;;;;;10.88;9.77;;;9.60;99.90;;;;;;5090948;28;20115;-49
2022/11/17 10:43:35;;;;;;;12.43;8.48;;;9.80;99.90;;;;;;5089555;28;20020;-51
2022/11/17 10:46:11;;;;;;;10.25;7.50;;;10.50;99.90;;;;;;5090814;28;20028;-51
2022/11/17 10:48:38;;;;;;;9.98;7.50;;;11.80;99.90;;;;;;5090738;28;20364;-50
2022/11/17 10:51:18;;;;;;;9.82;8.38;;;12.90;99.90;;;;;;5091109;28;20040;-53
2022/11/17 10:53:58;;;;;;;12.82;7.03;;;14.00;99.90;;;;;;5090576;28;20024;-54
2022/11/17 10:56:24;;;;;;;8.70;6.45;;;14.60;99.90;;;;;;5090769;28;20036;-53
2022/11/17 10:59:18;;;;;;;8.63;6.88;;;14.60;99.90;;;;;;5090088;28;20073;-54
2022/11/17 11:01:49;;;;;;;9.55;6.95;;;14.50;99.60;;;;;;5083016;28;20081;-54
2022/11/17 11:04:40;;;;;;;9.07;6.63;;;14.60;99.90;;;;;;5077161;28;20357;-53
2022/11/17 11:07:13;;;;;;;8.20;7.32;;;14.50;99.40;;;;;;5070299;28;20074;-54
2022/11/17 11:10:02;;;;;;;9.15;6.80;;;13.50;99.90;;;;;;5070156;28;20032;-51
2022/11/17 11:12:45;;;;;;;10.75;7.80;;;12.70;99.90;;;;;;5069862;28;20037;-50
2022/11/17 11:15:20;;;;;;;10.32;8.05;;;11.70;99.90;;;;;;5070613;28;20117;-51
2022/11/17 11:17:46;;;;;;;11.45;9.10;;;10.90;99.90;;;;;;5090109;28;20020;-51
2022/11/17 11:20:14;;;;;;;11.52;9.52;;;10.50;99.90;;;;;;5090144;28;20538;-50
2022/11/17 11:23:18;;;;;;;9.75;8.18;;;10.30;99.90;;;;;;5088859;28;20020;-51
2022/11/17 11:25:51;;;;;;;7.95;7.15;;;10.20;99.90;;;;;;5047294;28;20024;-50
2022/11/17 11:28:35;;;;;;;;;;;10.30;99.90;;;;;;5084920;28;20084;-53
2022/11/17 11:31:23;;;;;;;9.55;7.97;;;11.00;99.90;;;;;;5090212;28;20184;-53
2022/11/17 11:34:34;;;;;;;9.70;7.80;;;11.50;99.90;;;;;;5090172;28;20073;-52
2022/11/17 11:37:10;;;;;;;9.73;7.85;;;11.40;99.90;;;;;;5073838;28;20039;-51
2022/11/17 11:39:55;;;;;;;11.25;9.50;;;11.60;99.90;;;;;;5090006;28;20107;-52
2022/11/17 11:42:29;;;;;;;14.05;10.05;;;11.40;99.90;;;;;;5090104;28;20425;-54
2022/11/17 11:45:07;;;;;;;13.77;10.98;;;11.00;99.90;;;;;;5090023;28;20056;-53
2022/11/17 11:47:50;;;;;;;15.23;10.95;;;10.80;99.90;;;;;;5088597;28;20093;-54
2022/11/17 11:50:25;;;;;;;13.30;10.68;;;10.90;99.90;;;;;;5090182;28;20020;-54
2022/11/17 11:52:59;;;;;;;14.27;11.32;;;11.10;99.90;;;;;;5088700;28;20679;-53
2022/11/17 11:55:35;;;;;;;11.95;8.93;;;11.40;99.90;;;;;;5090105;28;20020;-51
2022/11/17 11:58:18;;;;;;;10.95;9.23;;;12.10;99.90;;;;;;5090109;28;20525;-53
2022/11/17 12:00:46;;;;;;;12.32;11.13;;;12.40;99.90;;;;;;5090119;28;20409;-51
2022/11/17 12:03:20;;;;;;;12.45;11.13;;;12.30;99.90;;;;;;5089889;28;20153;-52
2022/11/17 12:05:57;;;;;;;13.65;12.00;;;11.60;99.90;;;;;;5089731;28;20057;-55
2022/11/17 12:08:37;;;;;;;14.88;12.80;;;11.70;99.90;;;;;;5089743;28;20020;-53
2022/11/17 12:13:58;;;;;;;15.13;13.00;;;10.70;99.90;;;;;;5093723;28;20124;-52
2022/11/17 12:16:28;;;;;;;16.60;13.00;;;10.70;99.90;;;;;;5093787;28;20517;-53
2022/11/17 12:18:54;;;;;;;17.77;15.45;;;10.70;99.90;;;;;;5093647;28;20487;-52
2022/11/17 12:21:24;;;;;;;14.82;13.18;;;11.10;99.90;;;;;;5094329;28;20024;-53
2022/11/17 12:24:23;;;;;;;14.68;13.13;;;11.20;99.90;;;;;;5093750;28;20056;-52
2022/11/17 12:26:49;;;;;;;20.42;14.63;;;11.00;99.90;;;;;;5093536;28;20421;-50
2022/11/17 12:29:21;;;;;;;15.25;12.68;;;11.20;99.90;;;;;;5093780;28;20099;-50
2022/11/17 12:32:04;;;;;;;15.77;13.70;;;11.20;99.90;;;;;;5093468;28;20326;-51
2022/11/17 12:34:34;;;;;;;16.77;13.60;;;11.20;99.90;;;;;;5092178;28;20047;-51
2022/11/17 12:37:18;;;;;;;14.15;12.50;;;11.10;99.90;;;;;;5093463;28;20520;-50
2022/11/17 12:40:03;;;;;;;15.98;14.13;;;10.90;99.90;;;;;;5092486;28;20115;-53
2022/11/17 12:42:34;;;;;;;17.67;13.65;;;10.90;99.90;;;;;;5080611;28;20031;-55
2022/11/17 12:45:10;;;;;;;15.43;13.07;;;10.70;99.90;;;;;;5077785;28;20034;-52
2022/11/17 12:47:45;;;;;;;20.33;14.88;;;10.50;99.90;;;;;;5072276;28;20025;-50
2022/11/17 12:50:16;;;;;;;15.07;12.52;;;10.40;99.90;;;;;;5073020;28;20012;-53
2022/11/17 12:52:42;;;;;;;13.38;11.65;;;10.60;99.90;;;;;;5082418;28;20034;-51
2022/11/17 12:55:45;;;;;;;14.63;10.88;;;10.90;99.90;;;;;;5093296;28;20020;-54
2022/11/17 12:58:39;;;;;;;12.60;10.82;;;11.10;99.90;;;;;;5072928;28;20156;-52
2022/11/17 13:01:13;;;;;;;15.20;11.07;;;11.80;99.90;;;;;;5073035;28;20051;-52
2022/11/17 13:03:39;;;;;;;11.63;9.27;;;12.50;99.90;;;;;;5072448;28;20025;-51
2022/11/17 13:06:11;;;;;;;9.52;8.07;;;13.80;99.90;;;;;;5071275;28;20029;-52
2022/11/17 13:08:37;;;;;;;9.48;8.40;;;14.90;99.90;;;;;;5072456;28;20099;-56
2022/11/17 13:11:13;;;;;;;11.07;8.23;;;15.40;99.50;;;;;;5072411;28;20495;-54
2022/11/17 13:13:40;;;;;;;13.05;10.65;;;15.10;99.00;;;;;;5072592;28;20021;-53
2022/11/17 13:16:17;;;;;;;9.43;8.48;;;15.00;99.70;;;;;;5071438;28;20021;-51
2022/11/17 13:18:44;;;;;;;12.50;9.35;;;14.70;99.50;;;;;;5070752;28;20050;-53
2022/11/17 13:21:25;;;;;;;11.60;9.10;;;14.00;99.90;;;;;;5072047;28;20024;-55
2022/11/17 13:23:51;;;;;;;74.13;44.13;;;13.50;99.90;;;;;;5070034;28;20043;-54
2022/11/17 13:26:34;;;;;;;62.03;38.30;;;13.00;99.90;;;;;;5072058;28;20074;-54